Time;durP1;ratioP1;P1;durP2;ratioP2;P2;SDS_P1;SDS_P2;PMS_P1;PMS_P2;Temp;Humidity;BMP_temperature;BMP_pressure;BME280_temperature;BME280_humidity;BME280_pressure;Samples;Min_cycle;Max_cycle;Signal;HPM_P1;HPM_P2
2022/03/16 00:00:05;;;;;;;;;;;;;;;;;;5107750;27;20350;-75
2022/03/16 00:02:32;;;;;;;;;;;;;;;;;;5086840;28;19951;-75
2022/03/16 00:04:58;;;;;;;;;;;;;;;;;;5112020;27;20343;-74
2022/03/16 00:07:24;;;;;;;;;;;;;;;;;;5103619;27;19951;-75
2022/03/16 00:09:50;;;;;;;;;;;;;;;;;;5106124;28;20441;-75
2022/03/16 00:12:17;;;;;;;;;;;;;;;;;;5108046;27;20399;-75
2022/03/16 00:14:43;;;;;;;;;;;;;;;;;;5108754;28;19943;-74
2022/03/16 00:17:09;;;;;;;;;;;;;;;;;;5106035;28;20398;-76
2022/03/16 00:19:35;;;;;;;;;;;;;;;;;;5108772;27;19959;-76
2022/03/16 00:22:01;;;;;;;;;;;;;;;;;;5108059;28;20554;-76
2022/03/16 00:24:27;;;;;;;;;;;;;;;;;;5092919;28;19962;-75
2022/03/16 00:26:54;;;;;;;;;;;;;;;;;;5109381;28;20342;-75
2022/03/16 00:29:20;;;;;;;;;;;;;;;;;;5105420;28;19959;-77
2022/03/16 00:31:46;;;;;;;;;;;;;;;;;;5110396;27;19963;-75
2022/03/16 00:34:12;;;;;;;;;;;;;;;;;;5087727;28;19950;-75
2022/03/16 00:36:38;;;;;;;;;;;;;;;;;;5108589;28;19951;-75
2022/03/16 00:39:05;;;;;;;;;;;;;;;;;;5099907;28;19988;-75
2022/03/16 00:41:32;;;;;;;;;;;;;;;;;;5108481;28;19955;-75
2022/03/16 00:43:58;;;;;;;;;;;;;;;;;;5107468;28;20413;-75
2022/03/16 00:46:24;;;;;;;;;;;;;;;;;;5102790;27;19951;-74
2022/03/16 00:48:50;;;;;;;;;;;;;;;;;;5103295;27;20479;-76
2022/03/16 00:51:16;;;;;;;;;;;;;;;;;;5105762;28;19954;-74
2022/03/16 00:53:45;;;;;;;;;;;;;;;;;;5107036;27;20673;-74
2022/03/16 00:56:11;;;;;;;;;;;;;;;;;;5106047;28;19959;-74
2022/03/16 00:58:37;;;;;;;;;;;;;;;;;;5104520;28;19963;-74
2022/03/16 01:01:04;;;;;;;;;;;;;;;;;;5102545;27;19970;-75
2022/03/16 01:03:30;;;;;;;;;;;;;;;;;;5102806;27;19955;-77
2022/03/16 01:05:56;;;;;;;;;;;;;;;;;;5104429;27;20412;-73
2022/03/16 01:08:22;;;;;;;;;;;;;;;;;;5099728;28;20011;-75
2022/03/16 01:10:48;;;;;;;;;;;;;;;;;;5104818;28;20301;-74
2022/03/16 01:13:15;;;;;;;;;;;;;;;;;;5104822;28;19955;-74
2022/03/16 01:15:41;;;;;;;;;;;;;;;;;;5105241;28;19939;-74
2022/03/16 01:18:07;;;;;;;;;;;;;;;;;;5105877;27;19962;-75
2022/03/16 01:20:33;;;;;;;;;;;;;;;;;;5085111;28;19951;-75
2022/03/16 01:22:59;;;;;;;;;;;;;;;;;;5087788;28;19969;-75
2022/03/16 01:25:26;;;;;;;;;;;;;;;;;;5101468;27;19994;-75
2022/03/16 01:27:52;;;;;;;;;;;;;;;;;;5083841;28;20353;-75
2022/03/16 01:30:18;;;;;;;;;;;;;;;;;;5103879;28;20031;-75
2022/03/16 01:32:44;;;;;;;;;;;;;;;;;;5088523;28;19966;-76
2022/03/16 01:35:10;;;;;;;;;;;;;;;;;;5099952;28;19959;-76
2022/03/16 01:37:37;;;;;;;;;;;;;;;;;;5106250;28;19955;-76
2022/03/16 01:40:03;;;;;;;;;;;;;;;;;;5106173;28;19955;-74
2022/03/16 01:42:29;;;;;;;;;;;;;;;;;;5105749;28;19951;-76
2022/03/16 01:44:58;;;;;;;;;;;;;;;;;;5105246;28;19977;-76
2022/03/16 01:47:24;;;;;;;;;;;;;;;;;;5104966;28;19947;-76
2022/03/16 01:49:51;;;;;;;;;;;;;;;;;;5111681;27;19959;-75
2022/03/16 01:52:17;;;;;;;;;;;;;;;;;;5107292;28;19943;-76
2022/03/16 01:54:43;;;;;;;;;;;;;;;;;;5088645;28;19958;-75
2022/03/16 01:57:09;;;;;;;;;;;;;;;;;;5105391;28;19951;-76
2022/03/16 01:59:36;;;;;;;;;;;;;;;;;;5110007;28;19950;-76
2022/03/16 02:02:02;;;;;;;;;;;;;;;;;;5108860;27;20386;-75
2022/03/16 02:04:28;;;;;;;;;;;;;;;;;;5087128;28;19951;-75
2022/03/16 02:06:54;;;;;;;;;;;;;;;;;;5083354;28;20415;-76
2022/03/16 02:09:21;;;;;;;;;;;;;;;;;;5065743;28;19956;-75
2022/03/16 02:11:47;;;;;;;;;;;;;;;;;;5103361;28;19963;-75
2022/03/16 02:14:14;;;;;;;;;;;;;;;;;;5102985;28;19916;-74
2022/03/16 02:16:40;;;;;;;;;;;;;;;;;;5105968;28;19924;-75
2022/03/16 02:19:07;;;;;;;;;;;;;;;;;;5097139;28;19959;-76
2022/03/16 02:21:33;;;;;;;;;;;;;;;;;;5088757;28;20000;-75
2022/03/16 02:24:01;;;;;;;;;;;;;;;;;;5105245;28;20356;-75
2022/03/16 02:26:27;;;;;;;;;;;;;;;;;;5088749;28;20335;-76
2022/03/16 02:28:54;;;;;;;;;;;;;;;;;;5106726;27;19963;-75
2022/03/16 02:31:20;;;;;;;;;;;;;;;;;;5108688;27;19922;-75
2022/03/16 02:33:46;;;;;;;;;;;;;;;;;;5109814;28;20348;-75
2022/03/16 02:36:12;;;;;;;;;;;;;;;;;;5108306;28;19959;-74
2022/03/16 02:38:38;;;;;;;;;;;;;;;;;;5110903;28;20379;-75
2022/03/16 02:41:05;;;;;;;;;;;;;;;;;;5109388;27;20001;-76
2022/03/16 02:43:31;;;;;;;;;;;;;;;;;;5102366;28;19952;-75
2022/03/16 02:45:57;;;;;;;;;;;;;;;;;;5108196;27;19966;-75
2022/03/16 02:48:23;;;;;;;;;;;;;;;;;;5095555;27;20383;-75
2022/03/16 02:50:49;;;;;;;;;;;;;;;;;;5107600;28;19955;-75
2022/03/16 02:53:16;;;;;;;;;;;;;;;;;;5108344;27;19951;-75
2022/03/16 02:55:44;;;;;;;;;;;;;;;;;;5106791;28;19994;-75
2022/03/16 02:58:10;;;;;;;;;;;;;;;;;;5107312;27;20387;-75
2022/03/16 03:00:36;;;;;;;;;;;;;;;;;;5109455;27;19947;-75
2022/03/16 03:03:02;;;;;;;;;;;;;;;;;;5092049;28;19991;-75
2022/03/16 03:05:29;;;;;;;;;;;;;;;;;;5108740;27;19993;-75
2022/03/16 03:07:55;;;;;;;;;;;;;;;;;;5109603;27;19922;-75
2022/03/16 03:10:21;;;;;;;;;;;;;;;;;;5105013;28;20647;-76
2022/03/16 03:12:47;;;;;;;;;;;;;;;;;;5110418;27;19947;-76
2022/03/16 03:15:14;;;;;;;;;;;;;;;;;;5106172;28;19951;-76
2022/03/16 03:17:40;;;;;;;;;;;;;;;;;;5099710;27;19978;-77
2022/03/16 03:20:06;;;;;;;;;;;;;;;;;;5081543;27;19920;-76
2022/03/16 03:22:33;;;;;;;;;;;;;;;;;;5108340;27;20335;-75
2022/03/16 03:24:59;;;;;;;;;;;;;;;;;;5101608;27;19959;-75
2022/03/16 03:27:25;;;;;;;;;;;;;;;;;;5084799;28;19920;-75
2022/03/16 03:29:51;;;;;;;;;;;;;;;;;;5107166;28;20073;-74
2022/03/16 03:32:17;;;;;;;;;;;;;;;;;;5103675;28;19955;-75
2022/03/16 03:34:50;;;;;;;;;;;;;;;;;;5107737;28;19951;-75
2022/03/16 03:37:16;;;;;;;;;;;;;;;;;;5104441;28;19978;-76
2022/03/16 03:39:42;;;;;;;;;;;;;;;;;;5109055;28;20032;-75
2022/03/16 03:42:08;;;;;;;;;;;;;;;;;;5086253;28;19947;-76
2022/03/16 03:44:37;;;;;;;;;;;;;;;;;;5089421;27;20102;-75
2022/03/16 03:47:04;;;;;;;;;;;;;;;;;;5091286;28;19955;-75
2022/03/16 03:49:30;;;;;;;;;;;;;;;;;;5105667;27;20011;-75
2022/03/16 03:51:57;;;;;;;;;;;;;;;;;;5111048;27;19973;-75
2022/03/16 03:54:23;;;;;;;;;;;;;;;;;;5107999;28;19943;-75
2022/03/16 03:56:49;;;;;;;;;;;;;;;;;;5081823;28;19959;-76
2022/03/16 03:59:15;;;;;;;;;;;;;;;;;;5110265;27;19916;-75
2022/03/16 04:01:41;;;;;;;;;;;;;;;;;;5095196;28;20004;-75
2022/03/16 04:04:07;;;;;;;;;;;;;;;;;;5105691;28;19962;-75
2022/03/16 04:06:34;;;;;;;;;;;;;;;;;;5109349;28;19958;-75
2022/03/16 04:09:00;;;;;;;;;;;;;;;;;;5108532;28;19955;-75
2022/03/16 04:11:26;;;;;;;;;;;;;;;;;;5106295;27;19951;-75
2022/03/16 04:13:52;;;;;;;;;;;;;;;;;;5107622;28;19959;-74
2022/03/16 04:16:18;;;;;;;;;;;;;;;;;;5107620;27;19947;-75
2022/03/16 04:18:45;;;;;;;;;;;;;;;;;;5104498;28;19947;-75
2022/03/16 04:21:11;;;;;;;;;;;;;;;;;;5104583;28;20006;-75
2022/03/16 04:23:38;;;;;;;;;;;;;;;;;;5087835;28;20409;-75
2022/03/16 04:26:04;;;;;;;;;;;;;;;;;;5085632;28;19920;-77
2022/03/16 04:28:32;;;;;;;;;;;;;;;;;;5087045;28;19980;-75
2022/03/16 04:31:00;;;;;;;;;;;;;;;;;;5069304;28;20002;-75
2022/03/16 04:33:26;;;;;;;;;;;;;;;;;;5058808;28;19944;-75
2022/03/16 04:35:53;;;;;;;;;;;;;;;;;;5087914;28;20010;-75
2022/03/16 04:38:19;;;;;;;;;;;;;;;;;;5085012;28;20360;-76
2022/03/16 04:40:45;;;;;;;;;;;;;;;;;;5105690;28;19955;-75
2022/03/16 04:43:11;;;;;;;;;;;;;;;;;;5104350;28;20340;-76
2022/03/16 04:45:39;;;;;;;;;;;;;;;;;;5076873;28;19959;-76
2022/03/16 04:48:07;;;;;;;;;;;;;;;;;;5107148;27;19940;-77
2022/03/16 04:50:33;;;;;;;;;;;;;;;;;;5105875;28;21381;-75
2022/03/16 04:52:59;;;;;;;;;;;;;;;;;;5105121;28;19947;-75
2022/03/16 04:55:25;;;;;;;;;;;;;;;;;;5103792;27;20305;-75
2022/03/16 04:57:52;;;;;;;;;;;;;;;;;;5104521;28;19959;-75
2022/03/16 05:00:18;;;;;;;;;;;;;;;;;;5103804;28;20432;-75
2022/03/16 05:02:44;;;;;;;;;;;;;;;;;;5088351;28;19958;-75
2022/03/16 05:05:10;;;;;;;;;;;;;;;;;;5087304;28;19924;-76
2022/03/16 05:07:37;;;;;;;;;;;;;;;;;;5106525;28;19951;-76
2022/03/16 05:10:03;;;;;;;;;;;;;;;;;;5106712;27;20009;-76
2022/03/16 05:12:30;;;;;;;;;;;;;;;;;;5102900;27;19950;-75
2022/03/16 05:14:56;;;;;;;;;;;;;;;;;;5105078;28;20497;-75
2022/03/16 05:17:22;;;;;;;;;;;;;;;;;;5104313;27;19959;-75
2022/03/16 05:19:48;;;;;;;;;;;;;;;;;;5106666;28;20371;-75
2022/03/16 05:22:14;;;;;;;;;;;;;;;;;;5102493;28;19959;-76
2022/03/16 05:24:41;;;;;;;;;;;;;;;;;;5074627;28;19959;-75
2022/03/16 05:27:09;;;;;;;;;;;;;;;;;;5087820;28;19936;-76
2022/03/16 05:29:35;;;;;;;;;;;;;;;;;;5104871;28;19943;-75
2022/03/16 05:32:01;;;;;;;;;;;;;;;;;;5105605;28;20331;-76
2022/03/16 05:34:28;;;;;;;;;;;;;;;;;;5103699;28;19955;-76
2022/03/16 05:36:54;;;;;;;;;;;;;;;;;;5105333;28;19999;-76
2022/03/16 05:39:20;;;;;;;;;;;;;;;;;;5102839;28;19927;-75
2022/03/16 05:41:46;;;;;;;;;;;;;;;;;;5106691;28;19946;-75
2022/03/16 05:44:13;;;;;;;;;;;;;;;;;;5090267;28;19947;-75
2022/03/16 05:46:39;;;;;;;;;;;;;;;;;;5104509;28;19962;-76
2022/03/16 05:49:05;;;;;;;;;;;;;;;;;;5106750;27;20639;-77
2022/03/16 05:51:32;;;;;;;;;;;;;;;;;;5105871;28;19954;-76
2022/03/16 05:53:58;;;;;;;;;;;;;;;;;;5103177;28;19920;-75
2022/03/16 05:56:24;;;;;;;;;;;;;;;;;;5105013;28;19951;-76
2022/03/16 05:58:50;;;;;;;;;;;;;;;;;;5084320;28;20459;-75
2022/03/16 06:01:16;;;;;;;;;;;;;;;;;;5060212;28;20009;-77
2022/03/16 06:03:43;;;;;;;;;;;;;;;;;;5096207;28;19955;-76
2022/03/16 06:06:09;;;;;;;;;;;;;;;;;;5087618;28;19924;-76
2022/03/16 06:08:35;;;;;;;;;;;;;;;;;;5107354;28;19947;-77
2022/03/16 06:11:01;;;;;;;;;;;;;;;;;;5103355;28;19959;-76
2022/03/16 06:13:27;;;;;;;;;;;;;;;;;;5101706;28;19956;-75
2022/03/16 06:15:54;;;;;;;;;;;;;;;;;;5107428;28;20230;-74
2022/03/16 06:18:20;;;;;;;;;;;;;;;;;;5088799;28;19955;-76
2022/03/16 06:20:46;;;;;;;;;;;;;;;;;;5088085;28;19951;-75
2022/03/16 06:23:12;;;;;;;;;;;;;;;;;;5109820;28;19947;-75
2022/03/16 06:25:38;;;;;;;;;;;;;;;;;;5103181;28;20375;-74
2022/03/16 06:28:05;;;;;;;;;;;;;;;;;;5105715;28;19947;-75
2022/03/16 06:30:31;;;;;;;;;;;;;;;;;;5103546;28;19924;-75
2022/03/16 06:32:57;;;;;;;;;;;;;;;;;;5069451;28;20148;-76
2022/03/16 06:35:23;;;;;;;;;;;;;;;;;;5103726;28;19955;-76
2022/03/16 06:37:49;;;;;;;;;;;;;;;;;;5106914;28;20347;-76
2022/03/16 06:40:16;;;;;;;;;;;;;;;;;;5068444;28;19962;-77
2022/03/16 06:42:42;;;;;;;;;;;;;;;;;;5068532;28;19955;-76
2022/03/16 06:45:08;;;;;;;;;;;;;;;;;;5085906;28;19978;-76
2022/03/16 06:47:34;;;;;;;;;;;;;;;;;;5104956;28;19954;-76
2022/03/16 06:50:00;;;;;;;;;;;;;;;;;;5087549;28;19971;-76
2022/03/16 06:52:26;;;;;;;;;;;;;;;;;;5103272;28;20343;-76
2022/03/16 06:54:53;;;;;;;;;;;;;;;;;;5103973;28;19993;-76
2022/03/16 06:57:28;;;;;;;;;;;;;;;;;;5102345;28;19916;-76
2022/03/16 06:59:57;;;;;;;;;;;;;;;;;;5093205;28;19955;-76
2022/03/16 07:02:23;;;;;;;;;;;;;;;;;;5091374;28;19955;-78
2022/03/16 07:04:49;;;;;;;;;;;;;;;;;;5055168;28;19947;-77
2022/03/16 07:07:16;;;;;;;;;;;;;;;;;;5078975;28;20036;-77
2022/03/16 07:09:42;;;;;;;;;;;;;;;;;;5084955;28;19947;-77
2022/03/16 07:12:08;;;;;;;;;;;;;;;;;;5080977;28;19960;-74
2022/03/16 07:14:35;;;;;;;;;;;;;;;;;;5083156;28;19966;-75
2022/03/16 07:17:02;;;;;;;;;;;;;;;;;;5084419;28;19912;-82
2022/03/16 07:19:28;;;;;;;;;;;;;;;;;;5087137;28;19970;-76
2022/03/16 07:22:06;;;;;;;;;;;;;;;;;;5089664;28;19918;-76
2022/03/16 07:24:32;;;;;;;;;;;;;;;;;;5043684;28;19924;-76
2022/03/16 07:27:02;;;;;;;;;;;;;;;;;;5078499;28;19939;-76
2022/03/16 07:29:28;;;;;;;;;;;;;;;;;;5084927;28;19971;-76
2022/03/16 07:31:55;;;;;;;;;;;;;;;;;;5084914;28;20016;-76
2022/03/16 07:34:22;;;;;;;;;;;;;;;;;;5087171;28;20390;-76
2022/03/16 07:36:48;;;;;;;;;;;;;;;;;;5091019;28;19951;-76
2022/03/16 07:39:14;;;;;;;;;;;;;;;;;;5077003;28;20016;-76
2022/03/16 07:41:41;;;;;;;;;;;;;;;;;;5087703;28;20351;-76
2022/03/16 07:44:07;;;;;;;;;;;;;;;;;;5070465;28;19959;-77
2022/03/16 07:46:34;;;;;;;;;;;;;;;;;;5089610;28;19966;-77
2022/03/16 07:49:00;;;;;;;;;;;;;;;;;;5087948;28;20585;-77
2022/03/16 07:51:26;;;;;;;;;;;;;;;;;;5086807;28;19960;-77
2022/03/16 07:53:52;;;;;;;;;;;;;;;;;;5083266;27;20402;-77
2022/03/16 07:56:18;;;;;;;;;;;;;;;;;;5088863;28;19954;-76
2022/03/16 07:58:45;;;;;;;;;;;;;;;;;;5089227;28;20003;-77
2022/03/16 08:01:11;;;;;;;;;;;;;;;;;;5087642;28;19951;-76
2022/03/16 08:03:37;;;;;;;;;;;;;;;;;;5087595;28;19944;-76
2022/03/16 08:06:03;;;;;;;;;;;;;;;;;;5089118;28;19947;-76
2022/03/16 08:08:31;;;;;;;;;;;;;;;;;;5088444;28;20020;-75
2022/03/16 08:10:58;;;;;;;;;;;;;;;;;;5089730;28;19955;-75
2022/03/16 08:13:25;;;;;;;;;;;;;;;;;;5079843;28;19963;-77
2022/03/16 08:15:51;;;;;;;;;;;;;;;;;;5089202;28;19966;-75
2022/03/16 08:18:17;;;;;;;;;;;;;;;;;;5085674;28;19967;-77
2022/03/16 08:20:43;;;;;;;;;;;;;;;;;;5088939;28;20275;-76
2022/03/16 08:23:10;;;;;;;;;;;;;;;;;;5083406;28;19955;-77
2022/03/16 08:25:36;;;;;;;;;;;;;;;;;;5084783;28;20392;-77
2022/03/16 08:28:02;;;;;;;;;;;;;;;;;;5085552;28;19959;-76
2022/03/16 08:30:28;;;;;;;;;;;;;;;;;;5078277;28;19951;-76
2022/03/16 08:32:54;;;;;;;;;;;;;;;;;;5087694;28;19959;-76
2022/03/16 08:35:22;;;;;;;;;;;;;;;;;;5086057;28;19963;-76
2022/03/16 08:37:48;;;;;;;;;;;;;;;;;;5082229;28;19951;-76
2022/03/16 08:40:16;;;;;;;;;;;;;;;;;;5079779;28;20391;-76
2022/03/16 08:42:43;;;;;;;;;;;;;;;;;;5086837;28;19955;-77
2022/03/16 08:45:10;;;;;;;;;;;;;;;;;;5078138;28;19958;-77
2022/03/16 08:47:37;;;;;;;;;;;;;;;;;;5086170;28;19959;-77
2022/03/16 08:50:03;;;;;;;;;;;;;;;;;;5085558;28;19952;-77
2022/03/16 08:52:29;;;;;;;;;;;;;;;;;;5086316;28;19952;-76
2022/03/16 08:54:55;;;;;;;;;;;;;;;;;;5084174;28;19960;-77
2022/03/16 08:57:22;;;;;;;;;;;;;;;;;;5083660;28;20650;-76
2022/03/16 08:59:49;;;;;;;;;;;;;;;;;;5085572;28;19955;-76
2022/03/16 09:02:15;;;;;;;;;;;;;;;;;;5081525;28;19952;-77
2022/03/16 09:04:41;;;;;;;;;;;;;;;;;;5084340;28;19993;-76
2022/03/16 09:07:07;;;;;;;;;;;;;;;;;;5084470;28;19970;-76
2022/03/16 09:09:33;;;;;;;;;;;;;;;;;;5085125;28;19993;-76
2022/03/16 09:12:01;;;;;;;;;;;;;;;;;;5087391;28;20376;-76
2022/03/16 09:14:27;;;;;;;;;;;;;;;;;;5085611;28;19951;-76
2022/03/16 09:16:53;;;;;;;;;;;;;;;;;;5086068;28;20399;-77
2022/03/16 09:19:22;;;;;;;;;;;;;;;;;;5086931;28;19948;-76
2022/03/16 09:21:48;;;;;;;;;;;;;;;;;;5085217;28;19960;-76
2022/03/16 09:24:14;;;;;;;;;;;;;;;;;;5080763;28;19956;-76
2022/03/16 09:26:41;;;;;;;;;;;;;;;;;;5087336;28;19963;-75
2022/03/16 09:29:08;;;;;;;;;;;;;;;;;;5084348;28;19966;-76
2022/03/16 09:31:34;;;;;;;;;;;;;;;;;;5086707;28;19946;-75
2022/03/16 09:34:00;;;;;;;;;;;;;;;;;;5087410;28;19936;-75
2022/03/16 09:36:27;;;;;;;;;;;;;;;;;;5086115;28;19955;-75
2022/03/16 09:38:55;;;;;;;;;;;;;;;;;;5083967;28;20454;-77
2022/03/16 09:41:22;;;;;;;;;;;;;;;;;;5085549;28;19952;-76
2022/03/16 09:43:48;;;;;;;;;;;;;;;;;;5084308;28;20453;-76
2022/03/16 09:46:15;;;;;;;;;;;;;;;;;;5086633;28;20721;-76
2022/03/16 09:48:41;;;;;;;;;;;;;;;;;;5082500;28;19916;-76
2022/03/16 09:51:07;;;;;;;;;;;;;;;;;;5085028;28;19986;-75
2022/03/16 09:53:33;;;;;;;;;;;;;;;;;;5079052;28;19969;-76
2022/03/16 09:56:00;;;;;;;;;;;;;;;;;;5082777;28;19959;-76
2022/03/16 09:58:26;;;;;;;;;;;;;;;;;;5082801;28;19967;-76
2022/03/16 10:00:53;;;;;;;;;;;;;;;;;;5086838;28;19978;-76
2022/03/16 10:03:19;;;;;;;;;;;;;;;;;;5084982;28;19947;-76
2022/03/16 10:05:45;;;;;;;;;;;;;;;;;;5085319;28;19962;-76
2022/03/16 10:08:14;;;;;;;;;;;;;;;;;;5081447;28;19940;-76
2022/03/16 10:13:25;;;;;;;;;;;;;;;;;;5082572;28;19967;-75
2022/03/16 10:15:51;;;;;;;;;;;;;;;;;;5070536;28;20326;-76
2022/03/16 10:18:19;;;;;;;;;;;;;;;;;;5085578;28;19959;-76
2022/03/16 10:20:45;;;;;;;;;;;;;;;;;;5086349;28;20005;-76
2022/03/16 10:23:16;;;;;;;;;;;;;;;;;;5084430;28;19920;-77
2022/03/16 10:25:43;;;;;;;;;;;;;;;;;;5086009;28;19975;-76
2022/03/16 10:28:12;;;;;;;;;;;;;;;;;;5078463;28;19955;-76
2022/03/16 10:30:38;;;;;;;;;;;;;;;;;;5087337;28;20015;-76
2022/03/16 10:33:05;;;;;;;;;;;;;;;;;;5086199;28;19917;-76
2022/03/16 10:35:33;;;;;;;;;;;;;;;;;;5065791;28;19926;-76
2022/03/16 10:37:59;;;;;;;;;;;;;;;;;;5086190;28;19948;-76
2022/03/16 10:40:26;;;;;;;;;;;;;;;;;;5083693;28;20004;-76
2022/03/16 10:48:27;;;;;;;;;;;;;;;;;;5085049;28;19951;-76
2022/03/16 10:50:53;;;;;;;;;;;;;;;;;;5079140;28;19960;-76
2022/03/16 10:53:21;;;;;;;;;;;;;;;;;;5089167;28;19985;-76
2022/03/16 10:55:47;;;;;;;;;;;;;;;;;;5085425;28;19959;-75
2022/03/16 10:58:14;;;;;;;;;;;;;;;;;;5087423;28;19949;-76
2022/03/16 11:00:40;;;;;;;;;;;;;;;;;;5090639;28;19969;-76
2022/03/16 11:03:24;;;;;;;;;;;;;;;;;;5088964;28;20021;-77
2022/03/16 11:05:50;;;;;;;;;;;;;;;;;;5086498;28;19963;-76
2022/03/16 11:08:17;;;;;;;;;;;;;;;;;;5085810;28;19947;-76
2022/03/16 11:10:43;;;;;;;;;;;;;;;;;;5086920;28;19955;-77
2022/03/16 11:15:54;;;;;;;;;;;;;;;;;;5086946;28;19955;-76
2022/03/16 11:18:20;;;;;;;;;;;;;;;;;;5087097;28;19939;-77
2022/03/16 11:20:46;;;;;;;;;;;;;;;;;;5084975;28;20056;-76
2022/03/16 11:25:57;;;;;;;;;;;;;;;;;;5084970;28;20485;-76
2022/03/16 11:28:23;;;;;;;;;;;;;;;;;;5084836;28;19960;-76
2022/03/16 11:30:49;;;;;;;;;;;;;;;;;;5085708;28;19959;-76
2022/03/16 11:33:16;;;;;;;;;;;;;;;;;;5086738;28;19952;-76
2022/03/16 11:35:45;;;;;;;;;;;;;;;;;;5084065;28;19955;-76
2022/03/16 11:38:12;;;;;;;;;;;;;;;;;;5067295;28;19947;-77
2022/03/16 11:40:38;;;;;;;;;;;;;;;;;;5086423;28;19928;-77
2022/03/16 11:43:05;;;;;;;;;;;;;;;;;;5081050;28;19962;-76
2022/03/16 11:45:32;;;;;;;;;;;;;;;;;;5089029;28;20058;-81
2022/03/16 11:47:58;;;;;;;;;;;;;;;;;;5089652;28;20389;-79
2022/03/16 11:50:24;;;;;;;;;;;;;;;;;;5111226;27;19949;-81
2022/03/16 11:52:50;;;;;;;;;;;;;;;;;;5101430;28;20420;-80
2022/03/16 11:55:16;;;;;;;;;;;;;;;;;;5101904;28;19959;-80
2022/03/16 11:57:43;;;;;;;;;;;;;;;;;;5090275;28;20391;-81
2022/03/16 12:00:09;;;;;;;;;;;;;;;;;;5093468;28;19962;-81
2022/03/16 12:02:35;;;;;;;;;;;;;;;;;;5108459;28;20397;-81
2022/03/16 12:05:02;;;;;;;;;;;;;;;;;;5107010;27;19998;-81
2022/03/16 12:07:34;;;;;;;;;;;;;;;;;;5088180;28;19956;-81
2022/03/16 12:10:01;;;;;;;;;;;;;;;;;;5088342;27;19977;-83
2022/03/16 12:15:12;;;;;;;;;;;;;;;;;;5102802;28;19939;-80
2022/03/16 12:17:38;;;;;;;;;;;;;;;;;;5106640;28;20512;-80
2022/03/16 12:20:06;;;;;;;;;;;;;;;;;;5108865;27;19951;-81
2022/03/16 12:22:32;;;;;;;;;;;;;;;;;;5085683;28;20008;-80
2022/03/16 12:25:10;;;;;;;;;;;;;;;;;;5104275;27;19956;-79
2022/03/16 12:30:27;;;;;;;;;;;;;;;;;;5109628;27;19970;-80
2022/03/16 12:32:55;;;;;;;;;;;;;;;;;;5107937;27;19923;-81
2022/03/16 12:35:21;;;;;;;;;;;;;;;;;;5107881;27;19963;-79
2022/03/16 12:37:47;;;;;;;;;;;;;;;;;;5108750;27;20865;-81
2022/03/16 12:40:13;;;;;;;;;;;;;;;;;;5104210;28;19954;-81
2022/03/16 12:42:39;;;;;;;;;;;;;;;;;;5103064;28;20377;-82
2022/03/16 12:45:06;;;;;;;;;;;;;;;;;;5107697;27;19919;-81
2022/03/16 12:47:32;;;;;;;;;;;;;;;;;;5106348;28;19955;-82
2022/03/16 12:49:58;;;;;;;;;;;;;;;;;;5108437;28;19944;-81
2022/03/16 12:52:24;;;;;;;;;;;;;;;;;;5106721;28;20352;-81
2022/03/16 12:54:51;;;;;;;;;;;;;;;;;;5089208;28;19939;-81
2022/03/16 12:57:17;;;;;;;;;;;;;;;;;;5103714;28;19955;-82
2022/03/16 12:59:53;;;;;;;;;;;;;;;;;;5106356;28;20371;-83
2022/03/16 13:02:19;;;;;;;;;;;;;;;;;;5100980;27;20531;-81
2022/03/16 13:04:46;;;;;;;;;;;;;;;;;;5105665;28;19951;-81
2022/03/16 13:07:13;;;;;;;;;;;;;;;;;;5107815;27;19958;-80
2022/03/16 13:09:39;;;;;;;;;;;;;;;;;;5111368;27;19965;-80
2022/03/16 13:12:06;;;;;;;;;;;;;;;;;;5104750;28;19964;-81
2022/03/16 13:14:33;;;;;;;;;;;;;;;;;;5084963;28;20274;-82
2022/03/16 13:16:59;;;;;;;;;;;;;;;;;;5089227;28;20508;-81
2022/03/16 13:19:25;;;;;;;;;;;;;;;;;;5106835;27;19947;-81
2022/03/16 13:21:51;;;;;;;;;;;;;;;;;;5109357;28;20012;-81
2022/03/16 13:24:18;;;;;;;;;;;;;;;;;;5108067;28;19959;-82
2022/03/16 13:26:44;;;;;;;;;;;;;;;;;;5109820;28;19924;-81
2022/03/16 13:29:10;;;;;;;;;;;;;;;;;;5118447;28;19932;-80
2022/03/16 13:31:36;;;;;;;;;;;;;;;;;;5115206;27;19920;-82
2022/03/16 13:34:03;;;;;;;;;;;;;;;;;;5089194;28;20028;-81
2022/03/16 13:36:30;;;;;;;;;;;;;;;;;;5108491;28;19916;-81
2022/03/16 13:38:57;;;;;;;;;;;;;;;;;;5103849;27;20452;-80
2022/03/16 13:41:23;;;;;;;;;;;;;;;;;;5099625;28;19958;-85
2022/03/16 13:43:51;;;;;;;;;;;;;;;;;;5105856;28;19951;-80
2022/03/16 13:46:17;;;;;;;;;;;;;;;;;;5089015;28;19971;-80
2022/03/16 13:48:44;;;;;;;;;;;;;;;;;;5085431;28;20328;-81
2022/03/16 13:51:12;;;;;;;;;;;;;;;;;;5107307;28;19959;-81
2022/03/16 13:53:38;;;;;;;;;;;;;;;;;;5107731;28;19928;-82
2022/03/16 13:56:05;;;;;;;;;;;;;;;;;;5104734;28;19963;-80
2022/03/16 13:58:31;;;;;;;;;;;;;;;;;;5106557;28;19955;-80
2022/03/16 14:00:58;;;;;;;;;;;;;;;;;;5104117;28;19966;-81
2022/03/16 14:03:25;;;;;;;;;;;;;;;;;;5104425;28;19959;-79
2022/03/16 14:05:52;;;;;;;;;;;;;;;;;;5103634;28;20389;-80
2022/03/16 14:08:18;;;;;;;;;;;;;;;;;;5101667;28;19955;-81
2022/03/16 14:10:44;;;;;;;;;;;;;;;;;;5103251;28;19959;-81
2022/03/16 14:13:11;;;;;;;;;;;;;;;;;;5080616;28;19967;-80
2022/03/16 14:15:37;;;;;;;;;;;;;;;;;;5087450;28;20001;-82
2022/03/16 14:18:04;;;;;;;;;;;;;;;;;;5107016;28;19970;-82
2022/03/16 14:20:30;;;;;;;;;;;;;;;;;;5106510;28;19958;-82
2022/03/16 14:22:56;;;;;;;;;;;;;;;;;;5107086;28;19951;-81
2022/03/16 14:25:23;;;;;;;;;;;;;;;;;;5101498;28;19963;-81
2022/03/16 14:27:49;;;;;;;;;;;;;;;;;;5109249;28;19919;-80
2022/03/16 14:30:17;;;;;;;;;;;;;;;;;;5109990;28;20372;-82
2022/03/16 14:32:43;;;;;;;;;;;;;;;;;;5093476;28;19939;-81
2022/03/16 14:35:10;;;;;;;;;;;;;;;;;;5107629;28;19974;-81
2022/03/16 14:37:36;;;;;;;;;;;;;;;;;;5111560;27;19950;-82
2022/03/16 14:40:03;;;;;;;;;;;;;;;;;;5107332;28;19916;-82
2022/03/16 14:42:29;;;;;;;;;;;;;;;;;;5087343;28;19951;-81
2022/03/16 14:44:55;;;;;;;;;;;;;;;;;;5108004;28;20440;-82
2022/03/16 14:47:21;;;;;;;;;;;;;;;;;;5088244;28;19963;-78
2022/03/16 14:49:55;;;;;;;;;;;;;;;;;;5090943;28;19951;-79
2022/03/16 14:52:22;;;;;;;;;;;;;;;;;;5090553;27;19916;-79
2022/03/16 14:54:48;;;;;;;;;;;;;;;;;;5108658;28;20348;-80
2022/03/16 14:57:14;;;;;;;;;;;;;;;;;;5107284;28;19951;-78
2022/03/16 14:59:40;;;;;;;;;;;;;;;;;;5108297;28;19955;-78
2022/03/16 15:02:06;;;;;;;;;;;;;;;;;;5104227;28;20289;-77
2022/03/16 15:04:34;;;;;;;;;;;;;;;;;;5110274;28;19955;-79
2022/03/16 15:07:00;;;;;;;;;;;;;;;;;;5110418;28;19959;-80
2022/03/16 15:09:26;;;;;;;;;;;;;;;;;;5090800;28;20010;-80
2022/03/16 15:11:52;;;;;;;;;;;;;;;;;;5110774;28;19997;-79
2022/03/16 15:14:19;;;;;;;;;;;;;;;;;;5102646;27;20082;-80
2022/03/16 15:16:45;;;;;;;;;;;;;;;;;;5105199;28;19947;-79
2022/03/16 15:19:11;;;;;;;;;;;;;;;;;;5090081;28;19955;-80
2022/03/16 15:21:37;;;;;;;;;;;;;;;;;;5088068;28;20375;-80
2022/03/16 15:24:03;;;;;;;;;;;;;;;;;;5092604;28;19959;-80
2022/03/16 15:26:30;;;;;;;;;;;;;;;;;;5070837;28;19966;-80
2022/03/16 15:28:56;;;;;;;;;;;;;;;;;;5088705;28;20000;-77
2022/03/16 15:31:22;;;;;;;;;;;;;;;;;;5104216;28;20406;-80
2022/03/16 15:33:48;;;;;;;;;;;;;;;;;;5107170;28;19948;-80
2022/03/16 15:36:15;;;;;;;;;;;;;;;;;;5089355;28;20500;-78
2022/03/16 15:38:41;;;;;;;;;;;;;;;;;;5086064;28;19967;-79
2022/03/16 15:43:53;;;;;;;;;;;;;;;;;;5104548;28;20021;-78
2022/03/16 15:46:19;;;;;;;;;;;;;;;;;;5104529;28;19956;-78
2022/03/16 15:48:45;;;;;;;;;;;;;;;;;;5104679;28;19963;-80
2022/03/16 15:51:12;;;;;;;;;;;;;;;;;;5108988;28;19920;-79
2022/03/16 15:53:39;;;;;;;;;;;;;;;;;;5109470;27;19920;-81
2022/03/16 15:56:05;;;;;;;;;;;;;;;;;;5111181;27;19959;-80
2022/03/16 15:58:31;;;;;;;;;;;;;;;;;;5098177;27;19947;-79
2022/03/16 16:00:57;;;;;;;;;;;;;;;;;;5107812;28;19911;-79
2022/03/16 16:03:24;;;;;;;;;;;;;;;;;;5108073;28;20024;-79
2022/03/16 16:05:50;;;;;;;;;;;;;;;;;;5104040;28;20022;-78
2022/03/16 16:08:16;;;;;;;;;;;;;;;;;;5104819;27;19995;-78
2022/03/16 16:11:07;;;;;;;;;;;;;;;;;;5105384;28;20723;-78
2022/03/16 16:13:28;;;;;;;;;;;;;;;;;;5106365;27;19948;-78
2022/03/16 16:15:55;;;;;;;;;;;;;;;;;;5109656;28;19957;-77
2022/03/16 16:18:22;;;;;;;;;;;;;;;;;;5088840;28;20421;-79
2022/03/16 16:20:48;;;;;;;;;;;;;;;;;;5106262;27;19959;-80
2022/03/16 16:23:15;;;;;;;;;;;;;;;;;;5107049;28;20028;-80
2022/03/16 16:25:41;;;;;;;;;;;;;;;;;;5107745;28;20365;-80
2022/03/16 16:28:07;;;;;;;;;;;;;;;;;;5104320;27;19955;-80
2022/03/16 16:30:35;;;;;;;;;;;;;;;;;;5090985;28;19981;-82
2022/03/16 16:33:05;;;;;;;;;;;;;;;;;;5108531;27;19955;-83
2022/03/16 16:35:31;;;;;;;;;;;;;;;;;;5103086;27;20047;-81
2022/03/16 16:37:57;;;;;;;;;;;;;;;;;;5103150;27;20032;-82
2022/03/16 16:40:23;;;;;;;;;;;;;;;;;;5090362;28;19955;-81
2022/03/16 16:45:34;;;;;;;;;;;;;;;;;;5104956;28;21167;-81
2022/03/16 16:48:00;;;;;;;;;;;;;;;;;;5105050;28;20344;-81
2022/03/16 16:50:27;;;;;;;;;;;;;;;;;;5106881;27;20374;-81
2022/03/16 16:52:54;;;;;;;;;;;;;;;;;;5107620;27;19943;-81
2022/03/16 16:55:20;;;;;;;;;;;;;;;;;;5101183;28;20005;-83
2022/03/16 16:57:46;;;;;;;;;;;;;;;;;;5107706;27;20391;-81
2022/03/16 17:00:12;;;;;;;;;;;;;;;;;;5107454;28;19951;-80
2022/03/16 17:02:39;;;;;;;;;;;;;;;;;;5088679;27;19951;-81
2022/03/16 17:05:06;;;;;;;;;;;;;;;;;;5099560;28;20429;-81